Time;durP1;ratioP1;P1;durP2;ratioP2;P2;SDS_P1;SDS_P2;PMS_P1;PMS_P2;Temp;Humidity;BMP_temperature;BMP_pressure;BME280_temperature;BME280_humidity;BME280_pressure;Samples;Min_cycle;Max_cycle;Signal;HPM_P1;HPM_P2
2022/01/19 00:00:18;;;;;;;7.90;4.13;;;;;;;;;;5036640;28;20492;-63
2022/01/19 00:02:44;;;;;;;7.30;4.00;;;;;;;;;;5036510;28;20433;-63
2022/01/19 00:05:11;;;;;;;12.67;4.30;;;;;;;;;;5036673;28;20827;-64
2022/01/19 00:07:38;;;;;;;10.77;4.70;;;;;;;;;;5036919;28;20774;-65
2022/01/19 00:10:08;;;;;;;6.77;3.73;;;;;;;;;;5036693;28;20411;-63
2022/01/19 00:12:34;;;;;;;5.90;3.40;;;;;;;;;;5036577;28;20390;-63
2022/01/19 00:15:01;;;;;;;13.43;4.03;;;;;;;;;;5036660;28;20937;-63
2022/01/19 00:17:27;;;;;;;7.80;4.23;;;;;;;;;;5036857;28;20399;-63
2022/01/19 00:19:53;;;;;;;10.87;4.27;;;;;;;;;;5036522;28;20768;-63
2022/01/19 00:22:19;;;;;;;5.07;3.67;;;;;;;;;;5036376;28;20456;-63
2022/01/19 00:24:45;;;;;;;7.73;3.83;;;;;;;;;;5036251;28;20863;-66
2022/01/19 00:27:11;;;;;;;7.23;3.67;;;;;;;;;;5036541;28;20402;-64
2022/01/19 00:29:38;;;;;;;5.73;3.47;;;;;;;;;;5036028;28;20402;-64
2022/01/19 00:32:04;;;;;;;5.97;3.33;;;;;;;;;;5036577;28;20413;-64
2022/01/19 00:34:30;;;;;;;4.80;2.87;;;;;;;;;;5036680;28;20424;-64
2022/01/19 00:36:56;;;;;;;7.37;3.20;;;;;;;;;;5036333;28;20487;-64
2022/01/19 00:39:31;;;;;;;9.10;3.60;;;;;;;;;;5036438;28;20917;-64
2022/01/19 00:41:57;;;;;;;5.00;3.13;;;;;;;;;;5036306;28;20414;-64
2022/01/19 00:44:23;;;;;;;5.60;3.80;;;;;;;;;;5035949;28;20868;-64
2022/01/19 00:46:49;;;;;;;8.17;3.90;;;;;;;;;;5035939;28;20399;-64
2022/01/19 00:49:15;;;;;;;7.70;3.23;;;;;;;;;;5035888;28;20476;-64
2022/01/19 00:51:41;;;;;;;14.80;4.57;;;;;;;;;;5036203;28;20510;-64
2022/01/19 00:54:07;;;;;;;5.53;3.77;;;;;;;;;;5035842;28;20417;-65
2022/01/19 00:56:36;;;;;;;9.47;4.33;;;;;;;;;;5035860;28;20395;-64
2022/01/19 00:59:03;;;;;;;7.07;3.50;;;;;;;;;;5035710;28;20437;-64
2022/01/19 01:01:29;;;;;;;12.40;4.00;;;;;;;;;;5035876;28;20776;-64
2022/01/19 01:03:55;;;;;;;9.53;4.10;;;;;;;;;;5035605;28;20493;-64
2022/01/19 01:06:21;;;;;;;11.27;4.23;;;;;;;;;;5035137;28;20458;-64
2022/01/19 01:08:48;;;;;;;13.43;4.23;;;;;;;;;;5035014;28;20405;-64
2022/01/19 01:11:14;;;;;;;15.17;4.80;;;;;;;;;;5035630;28;20419;-65
2022/01/19 01:18:57;;;;;;;10.87;3.37;;;;;;;;;;5035596;28;20395;-64
2022/01/19 01:21:23;;;;;;;6.07;3.50;;;;;;;;;;5035431;28;20431;-64
2022/01/19 01:23:49;;;;;;;7.43;3.67;;;;;;;;;;5035263;28;20899;-64
2022/01/19 01:26:15;;;;;;;9.10;3.10;;;;;;;;;;5035477;28;20450;-62
2022/01/19 01:28:42;;;;;;;6.73;3.67;;;;;;;;;;5035019;28;20439;-63
2022/01/19 01:31:09;;;;;;;8.53;3.33;;;;;;;;;;5034918;28;20426;-64
2022/01/19 01:33:35;;;;;;;5.83;3.53;;;;;;;;;;5035280;28;20422;-63
2022/01/19 01:36:01;;;;;;;6.97;3.50;;;;;;;;;;5035054;28;20469;-62
2022/01/19 01:38:28;;;;;;;8.27;3.10;;;;;;;;;;5034822;28;20413;-62
2022/01/19 01:40:54;;;;;;;8.30;4.10;;;;;;;;;;5034758;28;20465;-63
2022/01/19 01:43:20;;;;;;;8.33;3.63;;;;;;;;;;5035008;28;20812;-64
2022/01/19 01:45:50;;;;;;;11.63;3.47;;;;;;;;;;5034703;28;20545;-64
2022/01/19 01:48:19;;;;;;;7.10;4.17;;;;;;;;;;5034734;28;20864;-63
2022/01/19 01:53:32;;;;;;;7.40;3.17;;;;;;;;;;5034481;28;20394;-64
2022/01/19 01:56:03;;;;;;;4.93;2.80;;;;;;;;;;5034921;28;20407;-64
2022/01/19 01:58:30;;;;;;;6.43;3.43;;;;;;;;;;5034741;28;20760;-64
2022/01/19 02:00:56;;;;;;;4.87;3.50;;;;;;;;;;5034436;28;20501;-64
2022/01/19 02:03:23;;;;;;;8.70;3.70;;;;;;;;;;5034518;28;20482;-64
2022/01/19 02:08:23;;;;;;;9.63;3.43;;;;;;;;;;5034523;28;20728;-64
2022/01/19 02:11:07;;;;;;;7.20;4.43;;;;;;;;;;5034469;28;20450;-63
2022/01/19 02:16:30;;;;;;;12.20;4.83;;;;;;;;;;5034268;28;20398;-64
2022/01/19 02:24:11;;;;;;;10.90;3.83;;;;;;;;;;5034252;28;20613;-64
2022/01/19 02:29:46;;;;;;;7.73;3.30;;;;;;;;;;5033989;28;20384;-64
2022/01/19 02:40:19;;;;;;;10.33;4.37;;;;;;;;;;5033987;28;20465;-64
2022/01/19 02:43:06;;;;;;;8.47;4.30;;;;;;;;;;5026599;28;20941;-63
2022/01/19 02:51:03;;;;;;;8.27;5.23;;;;;;;;;;5033722;28;20417;-63
2022/01/19 02:53:29;;;;;;;10.23;5.40;;;;;;;;;;5033753;28;20426;-63
2022/01/19 02:55:56;;;;;;;16.57;5.53;;;;;;;;;;5032649;28;20810;-62
2022/01/19 02:58:24;;;;;;;8.70;5.33;;;;;;;;;;5033416;28;20449;-64
2022/01/19 03:08:43;;;;;;;13.80;4.90;;;;;;;;;;5033205;28;20530;-63
2022/01/19 03:09:17;;;;;;;14.00;4.87;;;;;;;;;;5033057;28;20414;-63
2022/01/19 03:11:43;;;;;;;9.50;5.07;;;;;;;;;;5033269;28;20422;-64
2022/01/19 03:14:09;;;;;;;10.47;5.10;;;;;;;;;;5032999;28;20453;-65
2022/01/19 03:16:36;;;;;;;8.83;4.83;;;;;;;;;;5033046;28;20448;-64
2022/01/19 03:19:03;;;;;;;9.70;5.00;;;;;;;;;;5033252;28;20411;-64
2022/01/19 03:21:29;;;;;;;8.77;4.30;;;;;;;;;;5033176;28;20824;-64
2022/01/19 03:23:55;;;;;;;13.37;6.40;;;;;;;;;;5033074;28;20406;-64
2022/01/19 03:26:21;;;;;;;9.53;4.90;;;;;;;;;;5033304;28;20450;-64
2022/01/19 03:28:47;;;;;;;14.37;5.40;;;;;;;;;;5033067;28;20810;-63
2022/01/19 03:31:13;;;;;;;9.73;5.73;;;;;;;;;;5032497;28;20426;-64
2022/01/19 03:33:39;;;;;;;7.20;5.20;;;;;;;;;;5033152;28;20402;-64
2022/01/19 03:36:05;;;;;;;10.50;6.50;;;;;;;;;;5032961;28;20403;-64
2022/01/19 03:38:31;;;;;;;8.33;5.73;;;;;;;;;;5033007;28;20411;-64
2022/01/19 03:40:57;;;;;;;12.50;5.83;;;;;;;;;;5032763;28;20465;-64
2022/01/19 03:43:23;;;;;;;10.00;5.27;;;;;;;;;;5033369;28;20410;-64
2022/01/19 03:45:54;;;;;;;9.13;5.10;;;;;;;;;;5032961;28;20450;-64
2022/01/19 03:48:45;;;;;;;8.27;5.30;;;;;;;;;;5033031;28;20391;-65
2022/01/19 03:51:11;;;;;;;13.40;5.10;;;;;;;;;;5032921;28;20423;-65
2022/01/19 03:53:38;;;;;;;8.60;4.90;;;;;;;;;;5032714;28;20430;-64
2022/01/19 03:56:04;;;;;;;12.00;5.77;;;;;;;;;;5032787;28;20398;-63
2022/01/19 03:58:31;;;;;;;9.07;5.17;;;;;;;;;;5048100;28;20407;-62
2022/01/19 04:00:58;;;;;;;7.23;4.60;;;;;;;;;;5032754;28;20431;-64
2022/01/19 04:06:26;;;;;;;11.60;5.10;;;;;;;;;;5032702;28;20492;-63
2022/01/19 04:08:52;;;;;;;6.03;4.73;;;;;;;;;;5033129;28;20386;-64
2022/01/19 04:11:20;;;;;;;9.50;4.67;;;;;;;;;;5032886;28;20422;-63
2022/01/19 04:16:22;;;;;;;11.93;5.80;;;;;;;;;;5017971;28;20454;-64
2022/01/19 04:18:50;;;;;;;14.37;6.70;;;;;;;;;;5015784;28;20445;-63
2022/01/19 04:21:16;;;;;;;13.83;5.30;;;;;;;;;;5032334;28;20445;-64
2022/01/19 04:23:42;;;;;;;13.70;6.43;;;;;;;;;;5032443;28;20426;-65
2022/01/19 04:26:08;;;;;;;10.40;7.60;;;;;;;;;;5032604;28;20811;-65
2022/01/19 04:28:36;;;;;;;14.53;5.77;;;;;;;;;;5032907;28;20835;-64
2022/01/19 04:31:02;;;;;;;8.50;5.50;;;;;;;;;;5032436;28;20430;-65
2022/01/19 04:33:28;;;;;;;11.37;6.73;;;;;;;;;;5032610;28;20410;-64
2022/01/19 04:36:07;;;;;;;14.23;7.50;;;;;;;;;;5032551;28;20453;-64
2022/01/19 04:44:11;;;;;;;12.67;7.73;;;;;;;;;;5036243;28;20916;-64
2022/01/19 05:03:31;;;;;;;14.00;7.80;;;;;;;;;;5014139;28;20395;-64
2022/01/19 05:06:06;;;;;;;18.03;10.07;;;;;;;;;;5031372;28;20463;-64
2022/01/19 05:14:11;;;;;;;22.07;10.60;;;;;;;;;;5035321;28;20385;-63
2022/01/19 05:16:38;;;;;;;14.63;9.13;;;;;;;;;;5035401;28;20395;-64
2022/01/19 05:19:04;;;;;;;13.83;10.17;;;;;;;;;;5035634;28;20417;-63
2022/01/19 05:21:30;;;;;;;22.57;11.00;;;;;;;;;;5035179;28;20461;-64
2022/01/19 05:23:56;;;;;;;21.30;12.47;;;;;;;;;;5035252;28;20406;-63
2022/01/19 05:26:22;;;;;;;20.73;10.47;;;;;;;;;;5035224;28;20558;-62
2022/01/19 05:28:48;;;;;;;15.63;10.63;;;;;;;;;;5035472;28;20771;-63
2022/01/19 05:31:14;;;;;;;16.90;9.57;;;;;;;;;;5035151;28;20411;-63
2022/01/19 05:33:40;;;;;;;15.73;10.33;;;;;;;;;;5035434;28;20433;-64
2022/01/19 05:36:06;;;;;;;22.80;9.30;;;;;;;;;;5035327;28;20460;-64
2022/01/19 05:38:32;;;;;;;15.47;8.17;;;;;;;;;;5035065;28;20402;-64
2022/01/19 05:40:58;;;;;;;15.97;9.00;;;;;;;;;;5034856;28;20446;-64
2022/01/19 05:43:24;;;;;;;19.03;10.50;;;;;;;;;;5034834;28;20494;-63
2022/01/19 05:45:51;;;;;;;22.80;10.47;;;;;;;;;;5034704;28;20451;-64
2022/01/19 05:48:17;;;;;;;15.57;9.90;;;;;;;;;;5035028;28;20403;-64
2022/01/19 05:50:43;;;;;;;12.80;9.10;;;;;;;;;;5050249;28;20436;-64
2022/01/19 05:53:09;;;;;;;19.03;8.50;;;;;;;;;;5034091;28;20403;-64
2022/01/19 05:55:35;;;;;;;17.97;10.50;;;;;;;;;;5034881;28;20442;-64
2022/01/19 05:58:01;;;;;;;20.23;9.40;;;;;;;;;;5034667;28;20466;-64
2022/01/19 06:00:27;;;;;;;20.97;10.50;;;;;;;;;;5034761;28;20431;-64
2022/01/19 06:02:53;;;;;;;18.90;10.40;;;;;;;;;;5034850;28;20398;-64
2022/01/19 06:05:19;;;;;;;19.53;11.60;;;;;;;;;;5034479;28;20503;-66
2022/01/19 06:07:47;;;;;;;15.07;9.97;;;;;;;;;;5034529;28;20395;-64
2022/01/19 06:10:42;;;;;;;18.00;10.90;;;;;;;;;;5034344;28;20462;-64
2022/01/19 06:13:01;;;;;;;16.80;10.37;;;;;;;;;;5033859;28;20413;-64
2022/01/19 06:15:27;;;;;;;16.77;10.30;;;;;;;;;;5034437;28;20395;-64
2022/01/19 06:17:53;;;;;;;19.10;11.10;;;;;;;;;;5034114;28;20489;-64
2022/01/19 06:20:19;;;;;;;21.80;11.27;;;;;;;;;;5034091;28;20422;-64
2022/01/19 06:22:45;;;;;;;19.97;11.80;;;;;;;;;;5033012;28;20770;-65
2022/01/19 06:25:11;;;;;;;20.33;12.80;;;;;;;;;;5031983;28;20473;-66
2022/01/19 06:27:38;;;;;;;20.43;13.30;;;;;;;;;;5032879;28;20890;-64
2022/01/19 06:30:04;;;;;;;19.20;12.37;;;;;;;;;;5032369;28;20434;-63
2022/01/19 06:32:30;;;;;;;17.87;10.87;;;;;;;;;;5033982;28;20402;-64
2022/01/19 06:34:56;;;;;;;16.70;11.50;;;;;;;;;;5033049;28;20477;-62
2022/01/19 06:37:22;;;;;;;20.60;12.03;;;;;;;;;;5033211;28;20484;-72
2022/01/19 06:39:48;;;;;;;18.43;11.50;;;;;;;;;;5033161;28;20430;-70
2022/01/19 06:42:14;;;;;;;17.50;11.47;;;;;;;;;;5029791;28;20438;-69
2022/01/19 06:44:40;;;;;;;22.02;13.77;;;;;;;;;;5032496;28;20445;-64
2022/01/19 06:47:06;;;;;;;25.30;13.67;;;;;;;;;;5033861;28;20163;-63
2022/01/19 06:49:32;;;;;;;20.47;12.23;;;;;;;;;;5033466;28;20414;-65
2022/01/19 06:51:59;;;;;;;16.77;12.33;;;;;;;;;;5033483;28;20919;-63
2022/01/19 06:54:25;;;;;;;21.83;14.95;;;;;;;;;;5032568;28;20408;-65
2022/01/19 06:56:51;;;;;;;22.40;13.40;;;;;;;;;;5033842;28;20520;-63
2022/01/19 06:59:18;;;;;;;21.63;14.30;;;;;;;;;;5033223;28;20409;-68
2022/01/19 07:01:44;;;;;;;21.87;15.17;;;;;;;;;;5033242;28;20668;-64
2022/01/19 07:04:15;;;;;;;19.80;13.63;;;;;;;;;;5033370;28;20399;-65
2022/01/19 07:06:41;;;;;;;20.07;12.33;;;;;;;;;;5033334;28;20409;-66
2022/01/19 07:09:07;;;;;;;21.43;13.90;;;;;;;;;;5033582;28;20441;-68
2022/01/19 07:11:36;;;;;;;25.40;14.00;;;;;;;;;;5033294;28;20414;-67
2022/01/19 07:14:02;;;;;;;21.77;13.53;;;;;;;;;;5033674;28;20403;-63
2022/01/19 07:16:28;;;;;;;26.17;13.77;;;;;;;;;;5033343;28;20487;-64
2022/01/19 07:18:54;;;;;;;19.27;13.80;;;;;;;;;;5033524;28;20892;-63
2022/01/19 07:21:20;;;;;;;20.50;13.13;;;;;;;;;;5033428;28;20423;-62
2022/01/19 07:23:46;;;;;;;27.63;15.57;;;;;;;;;;5033528;28;20406;-64
2022/01/19 07:26:12;;;;;;;20.13;13.87;;;;;;;;;;5033308;28;20450;-70
2022/01/19 07:28:38;;;;;;;21.53;12.90;;;;;;;;;;5033171;28;20434;-63
2022/01/19 07:31:04;;;;;;;17.37;12.50;;;;;;;;;;5033160;28;20465;-65
2022/01/19 07:33:31;;;;;;;22.53;13.30;;;;;;;;;;5033437;28;20399;-64
2022/01/19 07:35:57;;;;;;;21.80;12.43;;;;;;;;;;5033380;28;20410;-63
2022/01/19 07:38:23;;;;;;;20.33;13.60;;;;;;;;;;5035623;28;20412;-64
2022/01/19 07:40:49;;;;;;;22.50;14.77;;;;;;;;;;5053268;28;20438;-63
2022/01/19 07:43:16;;;;;;;20.70;14.00;;;;;;;;;;5040282;28;20414;-63
2022/01/19 07:45:42;;;;;;;25.73;14.13;;;;;;;;;;5033164;28;20450;-63
2022/01/19 07:48:08;;;;;;;24.67;14.00;;;;;;;;;;5032976;28;20430;-70
2022/01/19 07:50:34;;;;;;;19.80;12.90;;;;;;;;;;5033174;28;20421;-64
2022/01/19 07:53:00;;;;;;;23.87;15.70;;;;;;;;;;5033029;28;20418;-66
2022/01/19 07:55:26;;;;;;;23.13;14.40;;;;;;;;;;5033311;28;20490;-63
2022/01/19 07:57:53;;;;;;;23.67;14.87;;;;;;;;;;5032937;28;20817;-63
2022/01/19 08:00:19;;;;;;;20.40;13.03;;;;;;;;;;5023194;28;20504;-65
2022/01/19 08:02:46;;;;;;;19.17;13.20;;;;;;;;;;5028354;28;20423;-64
2022/01/19 08:05:12;;;;;;;18.77;12.00;;;;;;;;;;5030679;28;20455;-63
2022/01/19 08:07:38;;;;;;;20.10;12.93;;;;;;;;;;5028963;28;20419;-61
2022/01/19 08:10:05;;;;;;;19.00;12.83;;;;;;;;;;5030308;28;20518;-63
2022/01/19 08:12:32;;;;;;;17.52;12.68;;;;;;;;;;5029388;28;20414;-64
2022/01/19 08:14:58;;;;;;;21.33;14.93;;;;;;;;;;5027271;28;20420;-66
2022/01/19 08:17:28;;;;;;;20.20;14.60;;;;;;;;;;5031880;28;20808;-67
2022/01/19 08:19:55;;;;;;;21.10;14.70;;;;;;;;;;5030879;28;20750;-67
2022/01/19 08:22:21;;;;;;;20.57;13.27;;;;;;;;;;5033426;28;20485;-64
2022/01/19 08:24:47;;;;;;;17.87;11.80;;;;;;;;;;5032353;28;20943;-66
2022/01/19 08:27:13;;;;;;;20.60;13.83;;;;;;;;;;5031747;28;20437;-65
2022/01/19 08:29:39;;;;;;;18.97;12.80;;;;;;;;;;5030034;28;20426;-65
2022/01/19 08:32:05;;;;;;;23.00;16.00;;;;;;;;;;5033404;28;20423;-65
2022/01/19 08:34:32;;;;;;;22.40;14.50;;;;;;;;;;5030871;28;20429;-66
2022/01/19 08:36:59;;;;;;;19.60;14.07;;;;;;;;;;5032155;28;20414;-68
2022/01/19 08:39:25;;;;;;;21.17;14.50;;;;;;;;;;5030903;28;20906;-64
2022/01/19 08:41:51;;;;;;;23.10;14.77;;;;;;;;;;5031649;28;20514;-64
2022/01/19 08:44:17;;;;;;;22.38;15.13;;;;;;;;;;5028066;28;20410;-63
2022/01/19 08:46:44;;;;;;;21.20;13.50;;;;;;;;;;5033797;28;20630;-63
2022/01/19 08:49:10;;;;;;;23.60;14.37;;;;;;;;;;5033819;28;20410;-61
2022/01/19 08:51:37;;;;;;;20.87;13.80;;;;;;;;;;5029304;28;20808;-62
2022/01/19 08:54:03;;;;;;;19.87;14.37;;;;;;;;;;5028764;28;20536;-61
2022/01/19 08:56:30;;;;;;;18.97;13.87;;;;;;;;;;5031125;28;20505;-63
2022/01/19 08:58:56;;;;;;;19.35;13.02;;;;;;;;;;5034892;28;20979;-63
2022/01/19 09:01:22;;;;;;;19.50;15.13;;;;;;;;;;5032963;28;20243;-64
2022/01/19 09:03:49;;;;;;;19.10;12.97;;;;;;;;;;5037800;28;20417;-64
2022/01/19 09:06:15;;;;;;;18.37;13.23;;;;;;;;;;5033479;28;20458;-66
2022/01/19 09:08:41;;;;;;;19.13;13.33;;;;;;;;;;5032270;28;20415;-66
2022/01/19 09:11:08;;;;;;;18.60;12.80;;;;;;;;;;5033047;28;20434;-64
2022/01/19 09:13:35;;;;;;;20.90;13.77;;;;;;;;;;5026995;28;20554;-66
2022/01/19 09:16:01;;;;;;;21.60;13.80;;;;;;;;;;5027076;28;20433;-67
2022/01/19 09:18:27;;;;;;;22.70;13.90;;;;;;;;;;5033336;28;20453;-68
2022/01/19 09:20:53;;;;;;;19.77;12.93;;;;;;;;;;5034285;28;20497;-67
2022/01/19 09:23:19;;;;;;;17.97;12.00;;;;;;;;;;5034557;28;20593;-65
2022/01/19 09:25:45;;;;;;;21.10;13.07;;;;;;;;;;5033174;28;20461;-64
2022/01/19 09:28:11;;;;;;;22.20;14.07;;;;;;;;;;5029678;28;20525;-65
2022/01/19 09:30:40;;;;;;;20.83;13.60;;;;;;;;;;5031740;28;20192;-69
2022/01/19 09:33:10;;;;;;;17.37;12.17;;;;;;;;;;5032271;28;20406;-65
2022/01/19 09:38:37;;;;;;;25.30;14.47;;;;;;;;;;5018079;28;20483;-69
2022/01/19 09:41:07;;;;;;;22.40;13.63;;;;;;;;;;5031834;28;20986;-66
2022/01/19 09:43:33;;;;;;;21.67;13.47;;;;;;;;;;5032896;28;20927;-66
2022/01/19 09:46:00;;;;;;;18.83;13.87;;;;;;;;;;5030406;28;20447;-67
2022/01/19 09:48:27;;;;;;;20.40;12.40;;;;;;;;;;5033000;28;20426;-68
2022/01/19 09:50:56;;;;;;;20.53;13.53;;;;;;;;;;5031306;28;20445;-68
2022/01/19 09:53:23;;;;;;;18.20;13.70;;;;;;;;;;5032826;28;20429;-65
2022/01/19 09:55:49;;;;;;;19.73;13.33;;;;;;;;;;5032029;28;20423;-66
2022/01/19 09:58:17;;;;;;;18.60;12.50;;;;;;;;;;5033108;28;21084;-67
2022/01/19 10:00:43;;;;;;;20.07;13.67;;;;;;;;;;5030528;28;20452;-65
2022/01/19 10:03:22;;;;;;;19.33;13.10;;;;;;;;;;5032530;28;20423;-66
2022/01/19 10:06:03;;;;;;;25.10;16.77;;;;;;;;;;5032812;28;20450;-66
2022/01/19 10:08:35;;;;;;;19.83;13.40;;;;;;;;;;5032026;28;20418;-67
2022/01/19 10:17:02;;;;;;;20.37;13.63;;;;;;;;;;5026522;28;20949;-62
2022/01/19 10:19:38;;;;;;;21.43;14.50;;;;;;;;;;5034064;28;20765;-63
2022/01/19 10:22:04;;;;;;;22.57;14.60;;;;;;;;;;5032467;28;20734;-65
2022/01/19 10:24:47;;;;;;;24.60;14.17;;;;;;;;;;5032557;28;20779;-72
2022/01/19 10:27:24;;;;;;;21.17;13.90;;;;;;;;;;5033032;28;20422;-64
2022/01/19 10:29:51;;;;;;;18.77;14.20;;;;;;;;;;5027865;28;20484;-66
2022/01/19 10:32:20;;;;;;;30.10;15.27;;;;;;;;;;5031988;28;20419;-65
2022/01/19 10:34:46;;;;;;;21.90;14.93;;;;;;;;;;5031974;28;20419;-67
2022/01/19 10:37:12;;;;;;;22.10;13.40;;;;;;;;;;5032386;28;20577;-68
2022/01/19 10:39:49;;;;;;;24.50;14.37;;;;;;;;;;5032383;28;20433;-65
2022/01/19 10:42:17;;;;;;;22.60;14.37;;;;;;;;;;5032277;28;20503;-66
2022/01/19 10:44:44;;;;;;;22.07;15.40;;;;;;;;;;5032788;28;20462;-70
2022/01/19 10:47:10;;;;;;;17.10;11.67;;;;;;;;;;5030259;28;20433;-69
2022/01/19 10:49:47;;;;;;;21.27;12.07;;;;;;;;;;5031549;28;20423;-65
2022/01/19 10:52:32;;;;;;;19.77;14.43;;;;;;;;;;5031034;28;20422;-64
2022/01/19 10:54:59;;;;;;;18.70;13.03;;;;;;;;;;5027491;28;20868;-63
2022/01/19 10:57:27;;;;;;;19.67;11.70;;;;;;;;;;5029713;28;20422;-65
2022/01/19 10:59:53;;;;;;;24.50;13.43;;;;;;;;;;5032130;28;21153;-64
2022/01/19 11:02:20;;;;;;;18.50;12.37;;;;;;;;;;5031179;28;20530;-62
2022/01/19 11:04:46;;;;;;;19.57;12.03;;;;;;;;;;5031440;28;20458;-64
2022/01/19 11:07:15;;;;;;;17.60;11.33;;;;;;;;;;5029704;28;20452;-63
2022/01/19 11:09:57;;;;;;;22.43;14.10;;;;;;;;;;5031294;28;20419;-66
2022/01/19 11:12:26;;;;;;;16.70;12.20;;;;;;;;;;5019622;28;20502;-65
2022/01/19 11:14:52;;;;;;;14.87;11.23;;;;;;;;;;5030954;28;20465;-65
2022/01/19 11:17:18;;;;;;;18.90;12.43;;;;;;;;;;5032181;28;20509;-63
2022/01/19 11:19:44;;;;;;;16.80;12.33;;;;;;;;;;5032863;28;20446;-63
2022/01/19 11:22:24;;;;;;;15.90;11.83;;;;;;;;;;5031970;28;20834;-70
2022/01/19 11:24:56;;;;;;;16.63;12.00;;;;;;;;;;5024045;28;20990;-63
2022/01/19 11:27:23;;;;;;;15.07;10.80;;;;;;;;;;5031045;28;20423;-69
2022/01/19 11:30:08;;;;;;;12.43;8.70;;;;;;;;;;5031510;28;20426;-63
2022/01/19 11:32:35;;;;;;;15.33;10.17;;;;;;;;;;5026062;28;20485;-69
2022/01/19 11:35:03;;;;;;;16.10;10.57;;;;;;;;;;5016453;28;20502;-70
2022/01/19 11:37:37;;;;;;;17.33;9.00;;;;;;;;;;5022268;28;20423;-70
2022/01/19 11:40:06;;;;;;;14.80;9.40;;;;;;;;;;5024152;28;20496;-66
2022/01/19 11:42:32;;;;;;;15.53;8.83;;;;;;;;;;5028191;28;20445;-68
2022/01/19 11:44:58;;;;;;;15.50;8.70;;;;;;;;;;5031018;28;20462;-66
2022/01/19 11:47:28;;;;;;;16.10;8.70;;;;;;;;;;5030656;28;20427;-63
2022/01/19 11:49:54;;;;;;;10.10;8.00;;;;;;;;;;5025628;28;20525;-66
2022/01/19 11:52:23;;;;;;;11.40;7.27;;;;;;;;;;5032935;28;20447;-65
2022/01/19 11:54:51;;;;;;;12.07;8.40;;;;;;;;;;5034766;28;20422;-65
2022/01/19 11:57:19;;;;;;;13.47;8.07;;;;;;;;;;5035892;28;20827;-61
2022/01/19 11:59:48;;;;;;;14.63;9.30;;;;;;;;;;5034464;28;20473;-64
2022/01/19 12:02:20;;;;;;;17.30;9.57;;;;;;;;;;5031996;28;20888;-65
2022/01/19 12:04:46;;;;;;;10.10;8.23;;;;;;;;;;5031234;28;20932;-65
2022/01/19 12:07:31;;;;;;;12.90;8.50;;;;;;;;;;5034450;28;20521;-64
2022/01/19 12:09:57;;;;;;;13.83;8.63;;;;;;;;;;5023369;28;20562;-65
2022/01/19 12:12:27;;;;;;;11.20;8.53;;;;;;;;;;5033219;28;20426;-64
2022/01/19 12:14:53;;;;;;;12.63;8.37;;;;;;;;;;5030975;28;20450;-65
2022/01/19 12:17:27;;;;;;;11.70;8.10;;;;;;;;;;5032254;28;20781;-64
2022/01/19 12:19:55;;;;;;;13.37;8.00;;;;;;;;;;5034707;28;20438;-64
2022/01/19 12:22:21;;;;;;;10.07;7.43;;;;;;;;;;5034750;28;20636;-68
2022/01/19 12:25:06;;;;;;;12.50;8.03;;;;;;;;;;5034329;28;20966;-68
2022/01/19 12:27:33;;;;;;;13.00;8.87;;;;;;;;;;5032674;28;20493;-65
2022/01/19 12:30:00;;;;;;;9.67;7.83;;;;;;;;;;5031279;28;20430;-61
2022/01/19 12:32:26;;;;;;;11.63;9.07;;;;;;;;;;5034743;28;20421;-64
2022/01/19 12:34:56;;;;;;;13.03;8.87;;;;;;;;;;5035051;28;20429;-65
2022/01/19 12:37:25;;;;;;;14.10;9.30;;;;;;;;;;5034959;28;20497;-67
2022/01/19 12:39:51;;;;;;;17.00;10.07;;;;;;;;;;5036723;28;20963;-62
2022/01/19 12:42:24;;;;;;;11.40;7.70;;;;;;;;;;5035322;28;20414;-68
2022/01/19 12:44:50;;;;;;;11.03;9.10;;;;;;;;;;5035561;28;20888;-67
2022/01/19 12:47:25;;;;;;;14.40;8.60;;;;;;;;;;5035313;28;20510;-65
2022/01/19 12:49:52;;;;;;;12.67;8.53;;;;;;;;;;5025225;28;20435;-62
2022/01/19 12:52:19;;;;;;;13.65;9.00;;;;;;;;;;5032364;28;20674;-61
2022/01/19 12:54:45;;;;;;;14.10;9.10;;;;;;;;;;5028173;28;20537;-66
2022/01/19 12:57:15;;;;;;;12.10;9.30;;;;;;;;;;5032428;28;20498;-63
2022/01/19 12:59:42;;;;;;;10.70;8.63;;;;;;;;;;5028380;28;20450;-65
2022/01/19 13:02:08;;;;;;;16.53;9.83;;;;;;;;;;5026416;28;21063;-71
2022/01/19 13:04:36;;;;;;;11.90;8.83;;;;;;;;;;5032029;28;20438;-67
2022/01/19 13:07:33;;;;;;;18.60;9.07;;;;;;;;;;5030944;28;20410;-64
2022/01/19 13:10:04;;;;;;;12.43;8.13;;;;;;;;;;5014520;28;20442;-60
2022/01/19 13:12:36;;;;;;;16.70;9.27;;;;;;;;;;5032238;28;20793;-62
2022/01/19 13:15:02;;;;;;;12.13;7.93;;;;;;;;;;5033050;28;20418;-59
2022/01/19 13:17:46;;;;;;;12.63;8.20;;;;;;;;;;5037846;28;20515;-62
2022/01/19 13:20:16;;;;;;;12.30;9.53;;;;;;;;;;5026294;28;20443;-60
2022/01/19 13:22:46;;;;;;;11.43;8.23;;;;;;;;;;5031927;28;20990;-59
2022/01/19 13:25:19;;;;;;;11.23;7.63;;;;;;;;;;5038861;28;20446;-59
2022/01/19 13:27:46;;;;;;;17.03;8.80;;;;;;;;;;5032719;28;20997;-57
2022/01/19 13:30:13;;;;;;;12.10;8.40;;;;;;;;;;5033706;28;20427;-60
2022/01/19 13:32:39;;;;;;;14.93;7.87;;;;;;;;;;5033985;28;20489;-63
2022/01/19 13:35:07;;;;;;;11.67;8.83;;;;;;;;;;5033719;28;20439;-60
2022/01/19 13:37:47;;;;;;;12.00;7.63;;;;;;;;;;5034435;28;20415;-60
2022/01/19 13:40:16;;;;;;;9.87;8.23;;;;;;;;;;5034262;28;20480;-61
2022/01/19 13:42:47;;;;;;;10.63;7.70;;;;;;;;;;5033450;28;20422;-59
2022/01/19 13:45:24;;;;;;;15.40;8.40;;;;;;;;;;5033734;28;20472;-61
2022/01/19 13:50:42;;;;;;;9.07;7.20;;;;;;;;;;5023458;28;21069;-59
2022/01/19 13:53:08;;;;;;;11.27;7.20;;;;;;;;;;5036900;28;20863;-58
2022/01/19 13:55:35;;;;;;;12.20;7.43;;;;;;;;;;5037508;28;20454;-59
2022/01/19 13:58:04;;;;;;;8.17;6.20;;;;;;;;;;5033069;28;20418;-60
2022/01/19 14:00:30;;;;;;;10.23;7.93;;;;;;;;;;5033438;28;20446;-59
2022/01/19 14:02:59;;;;;;;11.60;7.23;;;;;;;;;;5032716;28;20955;-60
2022/01/19 14:05:45;;;;;;;13.00;8.83;;;;;;;;;;5033570;28;20512;-60
2022/01/19 14:08:12;;;;;;;11.00;8.10;;;;;;;;;;5033264;28;20448;-60
2022/01/19 14:10:43;;;;;;;10.80;7.40;;;;;;;;;;5031931;28;20445;-60
2022/01/19 14:13:44;;;;;;;13.93;9.00;;;;;;;;;;5025531;28;20747;-62
2022/01/19 14:16:27;;;;;;;14.07;7.60;;;;;;;;;;4951601;29;20444;-61
2022/01/19 14:19:08;;;;;;;9.37;5.87;;;;;;;;;;5026915;28;20461;-61
2022/01/19 14:21:35;;;;;;;9.70;7.57;;;;;;;;;;5033138;28;20449;-60
2022/01/19 14:24:02;;;;;;;9.90;6.50;;;;;;;;;;5032082;28;20477;-61
2022/01/19 14:26:28;;;;;;;8.70;6.70;;;;;;;;;;5033349;28;20458;-61
2022/01/19 14:29:10;;;;;;;12.40;6.53;;;;;;;;;;5032248;28;20410;-59
2022/01/19 14:31:47;;;;;;;14.23;6.40;;;;;;;;;;5029664;28;20449;-61
2022/01/19 14:34:13;;;;;;;8.77;6.43;;;;;;;;;;5032225;28;20434;-61
2022/01/19 14:36:39;;;;;;;12.80;6.43;;;;;;;;;;5032871;28;20433;-58
2022/01/19 14:39:05;;;;;;;11.17;7.20;;;;;;;;;;5032023;28;20425;-60
2022/01/19 14:41:36;;;;;;;9.17;6.40;;;;;;;;;;5032737;28;20504;-60
2022/01/19 14:44:09;;;;;;;10.13;6.70;;;;;;;;;;5031207;28;20438;-60
2022/01/19 14:46:43;;;;;;;9.50;6.57;;;;;;;;;;5032855;28;20446;-60
2022/01/19 14:49:09;;;;;;;9.10;6.73;;;;;;;;;;5032234;28;20439;-59
2022/01/19 14:51:39;;;;;;;11.47;6.07;;;;;;;;;;5031375;28;20771;-58
2022/01/19 14:54:08;;;;;;;8.20;6.37;;;;;;;;;;5030333;28;20470;-62
2022/01/19 14:56:35;;;;;;;12.40;7.20;;;;;;;;;;5028767;28;20920;-57
2022/01/19 14:59:13;;;;;;;12.63;7.10;;;;;;;;;;5032469;28;20771;-59
2022/01/19 15:01:41;;;;;;;11.43;7.70;;;;;;;;;;5030520;28;20450;-60
2022/01/19 15:04:07;;;;;;;11.07;7.60;;;;;;;;;;5029496;28;20795;-59
2022/01/19 15:06:34;;;;;;;12.57;6.83;;;;;;;;;;5022042;28;20485;-61
2022/01/19 15:09:00;;;;;;;12.57;8.40;;;;;;;;;;5030621;28;20489;-59
2022/01/19 15:11:26;;;;;;;12.23;7.70;;;;;;;;;;5029558;28;20447;-60
2022/01/19 15:13:52;;;;;;;15.80;7.67;;;;;;;;;;5027227;28;20489;-60
2022/01/19 15:16:19;;;;;;;12.93;7.60;;;;;;;;;;5030637;28;20422;-59
2022/01/19 15:18:46;;;;;;;11.07;7.20;;;;;;;;;;5031634;28;20422;-59
2022/01/19 15:21:13;;;;;;;10.37;6.83;;;;;;;;;;5031741;28;20442;-61
2022/01/19 15:23:39;;;;;;;9.93;6.17;;;;;;;;;;5031790;28;20990;-61
2022/01/19 15:26:06;;;;;;;12.63;6.10;;;;;;;;;;5027322;28;20454;-65
2022/01/19 15:28:32;;;;;;;11.53;6.83;;;;;;;;;;5029151;28;20446;-61
2022/01/19 15:30:59;;;;;;;7.27;5.43;;;;;;;;;;5028781;28;20438;-61
2022/01/19 15:33:25;;;;;;;6.37;5.30;;;;;;;;;;5030568;28;20449;-60
2022/01/19 15:35:52;;;;;;;9.63;6.20;;;;;;;;;;5029693;28;20423;-60
2022/01/19 15:38:18;;;;;;;10.43;6.20;;;;;;;;;;5030573;28;20430;-59
2022/01/19 15:40:45;;;;;;;7.00;5.40;;;;;;;;;;5029115;28;20469;-65
2022/01/19 15:43:17;;;;;;;8.20;5.57;;;;;;;;;;5029921;28;20427;-66
2022/01/19 15:45:44;;;;;;;8.27;6.30;;;;;;;;;;5029824;28;20505;-64
2022/01/19 15:48:15;;;;;;;9.80;7.00;;;;;;;;;;5031853;28;20426;-62
2022/01/19 15:50:41;;;;;;;9.47;7.07;;;;;;;;;;5032492;28;20503;-63
2022/01/19 15:53:07;;;;;;;10.17;6.50;;;;;;;;;;5034767;28;20473;-63
2022/01/19 15:55:33;;;;;;;13.30;6.70;;;;;;;;;;5026100;28;20458;-64
2022/01/19 15:57:59;;;;;;;11.67;7.43;;;;;;;;;;5031962;28;20419;-61
2022/01/19 16:00:27;;;;;;;9.37;6.70;;;;;;;;;;5033198;28;20435;-63